sensor_id;sensor_type;location;lat;lon;timestamp;temperature;humidity
7666;DHT22;3875;46.562;4.898;2022-07-24T00:01:36;24.20;69.40
7666;DHT22;3875;46.562;4.898;2022-07-24T00:04:03;24.20;69.60
7666;DHT22;3875;46.562;4.898;2022-07-24T00:06:28;24.20;69.60
7666;DHT22;3875;46.562;4.898;2022-07-24T00:08:54;24.10;70.00
7666;DHT22;3875;46.562;4.898;2022-07-24T00:11:20;24.00;70.20
7666;DHT22;3875;46.562;4.898;2022-07-24T00:13:46;24.00;70.30
7666;DHT22;3875;46.562;4.898;2022-07-24T00:16:12;24.00;70.40
7666;DHT22;3875;46.562;4.898;2022-07-24T00:18:37;23.90;70.30
7666;DHT22;3875;46.562;4.898;2022-07-24T00:21:03;23.90;70.50
7666;DHT22;3875;46.562;4.898;2022-07-24T00:23:29;23.90;70.60
7666;DHT22;3875;46.562;4.898;2022-07-24T00:25:54;23.90;70.90
7666;DHT22;3875;46.562;4.898;2022-07-24T00:28:21;23.90;70.80
7666;DHT22;3875;46.562;4.898;2022-07-24T00:30:46;23.90;70.60
7666;DHT22;3875;46.562;4.898;2022-07-24T00:33:13;23.90;70.60
7666;DHT22;3875;46.562;4.898;2022-07-24T00:35:38;23.90;70.70
7666;DHT22;3875;46.562;4.898;2022-07-24T00:38:05;23.90;70.70
7666;DHT22;3875;46.562;4.898;2022-07-24T00:40:31;23.90;70.70
7666;DHT22;3875;46.562;4.898;2022-07-24T00:42:57;23.90;70.60
7666;DHT22;3875;46.562;4.898;2022-07-24T00:45:23;23.90;70.70
7666;DHT22;3875;46.562;4.898;2022-07-24T00:47:50;23.90;70.80
7666;DHT22;3875;46.562;4.898;2022-07-24T00:50:16;23.80;71.50
7666;DHT22;3875;46.562;4.898;2022-07-24T00:52:43;23.70;71.30
7666;DHT22;3875;46.562;4.898;2022-07-24T00:55:10;23.70;71.40
7666;DHT22;3875;46.562;4.898;2022-07-24T00:57:36;23.60;71.70
7666;DHT22;3875;46.562;4.898;2022-07-24T01:00:04;23.60;71.60
7666;DHT22;3875;46.562;4.898;2022-07-24T01:02:31;23.60;71.60
7666;DHT22;3875;46.562;4.898;2022-07-24T01:04:57;23.60;71.50
7666;DHT22;3875;46.562;4.898;2022-07-24T01:07:23;23.60;71.50
7666;DHT22;3875;46.562;4.898;2022-07-24T01:09:49;23.70;71.40
7666;DHT22;3875;46.562;4.898;2022-07-24T01:12:15;23.70;71.20
7666;DHT22;3875;46.562;4.898;2022-07-24T01:14:41;23.70;71.30
7666;DHT22;3875;46.562;4.898;2022-07-24T01:17:07;23.70;71.30
7666;DHT22;3875;46.562;4.898;2022-07-24T01:19:32;23.60;71.60
7666;DHT22;3875;46.562;4.898;2022-07-24T01:21:58;23.60;71.40
7666;DHT22;3875;46.562;4.898;2022-07-24T01:24:24;23.60;71.50
7666;DHT22;3875;46.562;4.898;2022-07-24T01:26:49;23.50;71.70
7666;DHT22;3875;46.562;4.898;2022-07-24T01:29:16;23.50;71.70
7666;DHT22;3875;46.562;4.898;2022-07-24T01:31:41;23.50;71.70
7666;DHT22;3875;46.562;4.898;2022-07-24T01:34:07;23.50;71.60
7666;DHT22;3875;46.562;4.898;2022-07-24T01:36:33;23.60;71.40
7666;DHT22;3875;46.562;4.898;2022-07-24T01:38:59;23.50;71.50
7666;DHT22;3875;46.562;4.898;2022-07-24T01:41:25;23.40;71.90
7666;DHT22;3875;46.562;4.898;2022-07-24T01:43:50;23.40;71.80
7666;DHT22;3875;46.562;4.898;2022-07-24T01:46:16;23.40;71.70
7666;DHT22;3875;46.562;4.898;2022-07-24T01:48:43;23.40;71.70
7666;DHT22;3875;46.562;4.898;2022-07-24T01:51:09;23.50;71.60
7666;DHT22;3875;46.562;4.898;2022-07-24T01:53:35;23.50;71.60
7666;DHT22;3875;46.562;4.898;2022-07-24T01:56:02;23.40;71.60
7666;DHT22;3875;46.562;4.898;2022-07-24T01:58:27;23.30;71.80
7666;DHT22;3875;46.562;4.898;2022-07-24T02:00:53;23.30;71.90
7666;DHT22;3875;46.562;4.898;2022-07-24T02:03:19;23.20;72.10
7666;DHT22;3875;46.562;4.898;2022-07-24T02:05:46;23.20;72.50
7666;DHT22;3875;46.562;4.898;2022-07-24T02:08:12;23.10;72.30
7666;DHT22;3875;46.562;4.898;2022-07-24T02:10:38;23.10;72.40
7666;DHT22;3875;46.562;4.898;2022-07-24T02:13:05;23.20;72.30
7666;DHT22;3875;46.562;4.898;2022-07-24T02:15:31;23.10;72.50
7666;DHT22;3875;46.562;4.898;2022-07-24T02:17:58;23.10;72.50
7666;DHT22;3875;46.562;4.898;2022-07-24T02:20:24;23.10;72.60
7666;DHT22;3875;46.562;4.898;2022-07-24T02:22:50;23.00;72.70
7666;DHT22;3875;46.562;4.898;2022-07-24T02:25:16;23.00;72.60
7666;DHT22;3875;46.562;4.898;2022-07-24T02:27:42;23.00;72.60
7666;DHT22;3875;46.562;4.898;2022-07-24T02:30:15;23.00;72.90
7666;DHT22;3875;46.562;4.898;2022-07-24T02:32:42;22.90;73.10
7666;DHT22;3875;46.562;4.898;2022-07-24T02:35:08;22.80;73.30
7666;DHT22;3875;46.562;4.898;2022-07-24T02:37:39;22.90;73.40
7666;DHT22;3875;46.562;4.898;2022-07-24T02:40:06;22.90;73.20
7666;DHT22;3875;46.562;4.898;2022-07-24T02:42:33;22.90;73.30
7666;DHT22;3875;46.562;4.898;2022-07-24T02:44:58;22.90;73.20
7666;DHT22;3875;46.562;4.898;2022-07-24T02:47:24;22.90;73.40
7666;DHT22;3875;46.562;4.898;2022-07-24T02:49:50;22.90;73.30
7666;DHT22;3875;46.562;4.898;2022-07-24T02:52:15;22.80;73.60
7666;DHT22;3875;46.562;4.898;2022-07-24T02:54:41;22.80;73.60
7666;DHT22;3875;46.562;4.898;2022-07-24T02:57:07;22.80;73.70
7666;DHT22;3875;46.562;4.898;2022-07-24T02:59:32;22.70;73.80
7666;DHT22;3875;46.562;4.898;2022-07-24T03:01:58;22.70;73.80
7666;DHT22;3875;46.562;4.898;2022-07-24T03:04:24;22.70;74.10
7666;DHT22;3875;46.562;4.898;2022-07-24T03:06:50;22.70;74.00
7666;DHT22;3875;46.562;4.898;2022-07-24T03:09:15;22.70;73.90
7666;DHT22;3875;46.562;4.898;2022-07-24T03:11:41;22.70;74.10
7666;DHT22;3875;46.562;4.898;2022-07-24T03:14:07;22.70;74.10
7666;DHT22;3875;46.562;4.898;2022-07-24T03:16:32;22.70;73.90
7666;DHT22;3875;46.562;4.898;2022-07-24T03:18:58;22.70;73.90
7666;DHT22;3875;46.562;4.898;2022-07-24T03:21:24;22.80;73.90
7666;DHT22;3875;46.562;4.898;2022-07-24T03:23:50;22.80;73.80
7666;DHT22;3875;46.562;4.898;2022-07-24T03:26:15;22.70;73.80
7666;DHT22;3875;46.562;4.898;2022-07-24T03:28:41;22.70;73.80
7666;DHT22;3875;46.562;4.898;2022-07-24T03:31:07;22.70;73.90
7666;DHT22;3875;46.562;4.898;2022-07-24T03:33:33;22.70;73.90
7666;DHT22;3875;46.562;4.898;2022-07-24T03:35:59;22.70;74.00
7666;DHT22;3875;46.562;4.898;2022-07-24T03:38:25;22.70;73.90
7666;DHT22;3875;46.562;4.898;2022-07-24T03:40:51;22.60;74.10
7666;DHT22;3875;46.562;4.898;2022-07-24T03:43:17;22.60;74.10
7666;DHT22;3875;46.562;4.898;2022-07-24T03:45:42;22.50;74.30
7666;DHT22;3875;46.562;4.898;2022-07-24T03:48:08;22.50;74.90
7666;DHT22;3875;46.562;4.898;2022-07-24T03:50:34;22.40;75.20
7666;DHT22;3875;46.562;4.898;2022-07-24T03:53:00;22.30;75.20
7666;DHT22;3875;46.562;4.898;2022-07-24T03:55:26;22.20;75.40
7666;DHT22;3875;46.562;4.898;2022-07-24T03:57:52;22.20;75.60
7666;DHT22;3875;46.562;4.898;2022-07-24T04:00:18;22.20;75.40
7666;DHT22;3875;46.562;4.898;2022-07-24T04:02:44;22.20;75.30
7666;DHT22;3875;46.562;4.898;2022-07-24T04:05:10;22.20;75.50
7666;DHT22;3875;46.562;4.898;2022-07-24T04:07:36;22.20;75.40
7666;DHT22;3875;46.562;4.898;2022-07-24T04:10:04;22.20;75.40
7666;DHT22;3875;46.562;4.898;2022-07-24T04:12:30;22.20;75.30
7666;DHT22;3875;46.562;4.898;2022-07-24T04:14:56;22.20;75.30
7666;DHT22;3875;46.562;4.898;2022-07-24T04:17:21;22.20;75.30
7666;DHT22;3875;46.562;4.898;2022-07-24T04:19:47;22.20;75.40
7666;DHT22;3875;46.562;4.898;2022-07-24T04:22:13;22.20;75.30
7666;DHT22;3875;46.562;4.898;2022-07-24T04:24:38;22.20;75.40
7666;DHT22;3875;46.562;4.898;2022-07-24T04:27:04;22.20;75.40
7666;DHT22;3875;46.562;4.898;2022-07-24T04:29:30;22.10;75.90
7666;DHT22;3875;46.562;4.898;2022-07-24T04:31:55;22.10;76.30
7666;DHT22;3875;46.562;4.898;2022-07-24T04:34:21;22.10;76.00
7666;DHT22;3875;46.562;4.898;2022-07-24T04:36:47;22.10;75.90
7666;DHT22;3875;46.562;4.898;2022-07-24T04:39:13;22.20;75.70
7666;DHT22;3875;46.562;4.898;2022-07-24T04:41:39;22.20;75.50
7666;DHT22;3875;46.562;4.898;2022-07-24T04:44:05;22.30;75.30
7666;DHT22;3875;46.562;4.898;2022-07-24T04:46:31;22.40;75.10
7666;DHT22;3875;46.562;4.898;2022-07-24T04:48:56;22.50;75.10
7666;DHT22;3875;46.562;4.898;2022-07-24T04:51:22;22.60;75.00
7666;DHT22;3875;46.562;4.898;2022-07-24T04:53:48;22.60;74.80
7666;DHT22;3875;46.562;4.898;2022-07-24T04:56:13;22.70;74.60
7666;DHT22;3875;46.562;4.898;2022-07-24T04:58:39;22.70;74.60
7666;DHT22;3875;46.562;4.898;2022-07-24T05:01:06;22.80;74.50
7666;DHT22;3875;46.562;4.898;2022-07-24T05:03:32;22.80;74.30
7666;DHT22;3875;46.562;4.898;2022-07-24T05:05:57;22.90;74.40
7666;DHT22;3875;46.562;4.898;2022-07-24T05:08:23;22.90;74.30
7666;DHT22;3875;46.562;4.898;2022-07-24T05:10:49;22.90;74.40
7666;DHT22;3875;46.562;4.898;2022-07-24T05:13:15;22.90;74.30
7666;DHT22;3875;46.562;4.898;2022-07-24T05:15:40;23.00;74.30
7666;DHT22;3875;46.562;4.898;2022-07-24T05:18:06;23.10;74.30
7666;DHT22;3875;46.562;4.898;2022-07-24T05:20:32;23.10;74.30
7666;DHT22;3875;46.562;4.898;2022-07-24T05:22:57;23.20;74.10
7666;DHT22;3875;46.562;4.898;2022-07-24T05:25:24;23.30;73.90
7666;DHT22;3875;46.562;4.898;2022-07-24T05:27:49;23.30;73.90
7666;DHT22;3875;46.562;4.898;2022-07-24T05:30:15;23.20;74.30
7666;DHT22;3875;46.562;4.898;2022-07-24T05:32:41;23.30;74.00
7666;DHT22;3875;46.562;4.898;2022-07-24T05:35:07;23.40;74.00
7666;DHT22;3875;46.562;4.898;2022-07-24T05:37:32;23.50;73.60
7666;DHT22;3875;46.562;4.898;2022-07-24T05:39:58;23.70;73.40
7666;DHT22;3875;46.562;4.898;2022-07-24T05:42:24;23.80;73.10
7666;DHT22;3875;46.562;4.898;2022-07-24T05:44:49;23.90;72.90
7666;DHT22;3875;46.562;4.898;2022-07-24T05:47:15;24.00;72.90
7666;DHT22;3875;46.562;4.898;2022-07-24T05:49:41;23.90;72.70
7666;DHT22;3875;46.562;4.898;2022-07-24T05:52:07;24.00;72.90
7666;DHT22;3875;46.562;4.898;2022-07-24T05:54:32;24.10;72.90
7666;DHT22;3875;46.562;4.898;2022-07-24T05:56:58;24.20;72.60
7666;DHT22;3875;46.562;4.898;2022-07-24T05:59:24;24.20;72.30
7666;DHT22;3875;46.562;4.898;2022-07-24T06:01:49;24.30;72.10
7666;DHT22;3875;46.562;4.898;2022-07-24T06:04:15;24.40;71.90
7666;DHT22;3875;46.562;4.898;2022-07-24T06:06:41;24.50;72.00
7666;DHT22;3875;46.562;4.898;2022-07-24T06:09:06;24.60;71.70
7666;DHT22;3875;46.562;4.898;2022-07-24T06:11:32;24.80;71.80
7666;DHT22;3875;46.562;4.898;2022-07-24T06:13:58;24.90;71.10
7666;DHT22;3875;46.562;4.898;2022-07-24T06:16:24;24.90;70.60
7666;DHT22;3875;46.562;4.898;2022-07-24T06:18:50;24.70;71.00
7666;DHT22;3875;46.562;4.898;2022-07-24T06:21:16;24.70;71.00
7666;DHT22;3875;46.562;4.898;2022-07-24T06:23:41;24.90;70.90
7666;DHT22;3875;46.562;4.898;2022-07-24T06:26:07;25.10;70.70
7666;DHT22;3875;46.562;4.898;2022-07-24T06:28:33;25.10;70.10
7666;DHT22;3875;46.562;4.898;2022-07-24T06:30:59;25.00;69.90
7666;DHT22;3875;46.562;4.898;2022-07-24T06:33:24;25.00;70.20
7666;DHT22;3875;46.562;4.898;2022-07-24T06:35:50;25.30;69.90
7666;DHT22;3875;46.562;4.898;2022-07-24T06:38:16;25.50;69.70
7666;DHT22;3875;46.562;4.898;2022-07-24T06:40:42;25.50;68.90
7666;DHT22;3875;46.562;4.898;2022-07-24T06:43:08;25.50;69.10
7666;DHT22;3875;46.562;4.898;2022-07-24T06:45:34;25.60;69.40
7666;DHT22;3875;46.562;4.898;2022-07-24T06:48:02;25.60;68.70
7666;DHT22;3875;46.562;4.898;2022-07-24T06:50:28;25.50;69.00
7666;DHT22;3875;46.562;4.898;2022-07-24T06:52:54;25.60;68.90
7666;DHT22;3875;46.562;4.898;2022-07-24T06:55:20;25.80;68.90
7666;DHT22;3875;46.562;4.898;2022-07-24T06:57:46;25.90;68.40
7666;DHT22;3875;46.562;4.898;2022-07-24T07:00:12;26.00;68.30
7666;DHT22;3875;46.562;4.898;2022-07-24T07:02:38;26.00;67.90
7666;DHT22;3875;46.562;4.898;2022-07-24T07:05:06;26.10;68.60
7666;DHT22;3875;46.562;4.898;2022-07-24T07:07:32;26.10;68.50
7666;DHT22;3875;46.562;4.898;2022-07-24T07:09:58;26.20;67.90
7666;DHT22;3875;46.562;4.898;2022-07-24T07:12:24;26.20;67.90
7666;DHT22;3875;46.562;4.898;2022-07-24T07:14:49;26.40;67.90
7666;DHT22;3875;46.562;4.898;2022-07-24T07:17:15;26.40;67.80
7666;DHT22;3875;46.562;4.898;2022-07-24T07:19:42;26.50;67.70
7666;DHT22;3875;46.562;4.898;2022-07-24T07:22:08;26.60;67.60
7666;DHT22;3875;46.562;4.898;2022-07-24T07:24:34;26.80;67.40
7666;DHT22;3875;46.562;4.898;2022-07-24T07:27:00;26.90;67.00
7666;DHT22;3875;46.562;4.898;2022-07-24T07:29:26;27.00;67.10
7666;DHT22;3875;46.562;4.898;2022-07-24T07:31:52;27.10;66.90
7666;DHT22;3875;46.562;4.898;2022-07-24T07:34:18;27.10;67.10
7666;DHT22;3875;46.562;4.898;2022-07-24T07:36:43;27.20;66.30
7666;DHT22;3875;46.562;4.898;2022-07-24T07:39:09;27.20;66.70
7666;DHT22;3875;46.562;4.898;2022-07-24T07:41:35;27.20;66.90
7666;DHT22;3875;46.562;4.898;2022-07-24T07:44:01;27.30;67.10
7666;DHT22;3875;46.562;4.898;2022-07-24T07:46:27;27.30;66.70
7666;DHT22;3875;46.562;4.898;2022-07-24T07:48:53;27.40;66.60
7666;DHT22;3875;46.562;4.898;2022-07-24T07:51:19;27.40;66.50
7666;DHT22;3875;46.562;4.898;2022-07-24T07:53:45;27.50;66.70
7666;DHT22;3875;46.562;4.898;2022-07-24T07:56:11;27.60;66.70
7666;DHT22;3875;46.562;4.898;2022-07-24T07:58:36;27.80;66.30
7666;DHT22;3875;46.562;4.898;2022-07-24T08:01:03;28.00;65.20
7666;DHT22;3875;46.562;4.898;2022-07-24T08:03:28;28.10;65.30
7666;DHT22;3875;46.562;4.898;2022-07-24T08:05:54;28.20;64.50
7666;DHT22;3875;46.562;4.898;2022-07-24T08:08:20;28.10;64.80
7666;DHT22;3875;46.562;4.898;2022-07-24T08:10:46;28.10;64.30
7666;DHT22;3875;46.562;4.898;2022-07-24T08:13:12;28.10;65.10
7666;DHT22;3875;46.562;4.898;2022-07-24T08:15:40;28.10;64.60
7666;DHT22;3875;46.562;4.898;2022-07-24T08:18:06;28.30;64.90
7666;DHT22;3875;46.562;4.898;2022-07-24T08:20:32;28.50;64.80
7666;DHT22;3875;46.562;4.898;2022-07-24T08:22:58;28.80;64.30
7666;DHT22;3875;46.562;4.898;2022-07-24T08:25:24;28.90;63.70
7666;DHT22;3875;46.562;4.898;2022-07-24T08:27:50;28.80;63.40
7666;DHT22;3875;46.562;4.898;2022-07-24T08:30:15;29.00;63.70
7666;DHT22;3875;46.562;4.898;2022-07-24T08:32:41;29.20;63.10
7666;DHT22;3875;46.562;4.898;2022-07-24T08:35:09;29.20;62.70
7666;DHT22;3875;46.562;4.898;2022-07-24T08:37:37;29.30;62.90
7666;DHT22;3875;46.562;4.898;2022-07-24T08:40:03;29.50;62.80
7666;DHT22;3875;46.562;4.898;2022-07-24T08:42:29;29.70;62.00
7666;DHT22;3875;46.562;4.898;2022-07-24T08:44:55;29.60;61.20
7666;DHT22;3875;46.562;4.898;2022-07-24T08:47:21;29.60;61.80
7666;DHT22;3875;46.562;4.898;2022-07-24T08:49:48;29.70;61.60
7666;DHT22;3875;46.562;4.898;2022-07-24T08:52:18;29.90;60.80
7666;DHT22;3875;46.562;4.898;2022-07-24T08:54:45;29.90;60.70
7666;DHT22;3875;46.562;4.898;2022-07-24T08:57:11;29.90;61.10
7666;DHT22;3875;46.562;4.898;2022-07-24T08:59:37;30.00;60.70
7666;DHT22;3875;46.562;4.898;2022-07-24T09:02:02;30.10;61.10
7666;DHT22;3875;46.562;4.898;2022-07-24T09:04:36;30.30;60.60
7666;DHT22;3875;46.562;4.898;2022-07-24T09:07:08;30.40;60.50
7666;DHT22;3875;46.562;4.898;2022-07-24T09:09:35;30.60;59.30
7666;DHT22;3875;46.562;4.898;2022-07-24T09:14:36;30.70;59.10
7666;DHT22;3875;46.562;4.898;2022-07-24T09:17:08;30.80;59.50
7666;DHT22;3875;46.562;4.898;2022-07-24T09:19:59;30.90;59.10
7666;DHT22;3875;46.562;4.898;2022-07-24T09:25:24;31.00;59.40
7666;DHT22;3875;46.562;4.898;2022-07-24T09:32:56;32.00;58.90
7666;DHT22;3875;46.562;4.898;2022-07-24T09:35:43;32.30;57.50
7666;DHT22;3875;46.562;4.898;2022-07-24T09:38:12;32.40;57.00
7666;DHT22;3875;46.562;4.898;2022-07-24T09:40:40;32.50;55.40
7666;DHT22;3875;46.562;4.898;2022-07-24T09:43:31;32.40;56.40
7666;DHT22;3875;46.562;4.898;2022-07-24T09:48:28;33.00;56.50
7666;DHT22;3875;46.562;4.898;2022-07-24T09:50:57;33.10;55.10
7666;DHT22;3875;46.562;4.898;2022-07-24T09:53:29;33.00;55.10
7666;DHT22;3875;46.562;4.898;2022-07-24T09:56:09;33.00;55.30
7666;DHT22;3875;46.562;4.898;2022-07-24T09:58:38;33.30;55.10
7666;DHT22;3875;46.562;4.898;2022-07-24T10:01:06;33.50;54.40
7666;DHT22;3875;46.562;4.898;2022-07-24T10:03:35;33.70;54.20
7666;DHT22;3875;46.562;4.898;2022-07-24T10:06:03;33.80;53.60
7666;DHT22;3875;46.562;4.898;2022-07-24T10:08:30;33.90;53.40
7666;DHT22;3875;46.562;4.898;2022-07-24T10:10:56;33.90;54.40
7666;DHT22;3875;46.562;4.898;2022-07-24T10:13:22;34.20;53.90
7666;DHT22;3875;46.562;4.898;2022-07-24T10:21:21;34.40;52.40
7666;DHT22;3875;46.562;4.898;2022-07-24T10:26:36;34.40;51.00
7666;DHT22;3875;46.562;4.898;2022-07-24T10:29:09;34.10;52.10
7666;DHT22;3875;46.562;4.898;2022-07-24T10:31:44;34.40;52.70
7666;DHT22;3875;46.562;4.898;2022-07-24T10:46:21;34.80;51.10
7666;DHT22;3875;46.562;4.898;2022-07-24T10:48:30;34.60;50.40
7666;DHT22;3875;46.562;4.898;2022-07-24T10:51:12;34.50;51.20
7666;DHT22;3875;46.562;4.898;2022-07-24T10:53:48;35.00;51.40
7666;DHT22;3875;46.562;4.898;2022-07-24T10:56:18;35.20;50.70
7666;DHT22;3875;46.562;4.898;2022-07-24T11:01:43;35.30;50.00
7666;DHT22;3875;46.562;4.898;2022-07-24T11:09:15;35.30;50.40
7666;DHT22;3875;46.562;4.898;2022-07-24T11:12:02;35.30;50.20
7666;DHT22;3875;46.562;4.898;2022-07-24T11:20:02;35.80;48.90
7666;DHT22;3875;46.562;4.898;2022-07-24T11:22:39;35.70;48.90
7666;DHT22;3875;46.562;4.898;2022-07-24T11:25:11;35.80;49.40
7666;DHT22;3875;46.562;4.898;2022-07-24T11:27:42;36.30;48.60
7666;DHT22;3875;46.562;4.898;2022-07-24T11:30:10;36.60;48.40
7666;DHT22;3875;46.562;4.898;2022-07-24T11:32:38;36.60;47.80
7666;DHT22;3875;46.562;4.898;2022-07-24T11:35:04;36.50;47.10
7666;DHT22;3875;46.562;4.898;2022-07-24T11:37:35;36.40;47.90
7666;DHT22;3875;46.562;4.898;2022-07-24T11:40:01;36.60;47.80
7666;DHT22;3875;46.562;4.898;2022-07-24T11:42:28;36.80;47.20
7666;DHT22;3875;46.562;4.898;2022-07-24T11:44:54;37.10;47.40
7666;DHT22;3875;46.562;4.898;2022-07-24T11:47:21;37.20;46.60
7666;DHT22;3875;46.562;4.898;2022-07-24T11:49:51;37.20;46.60
7666;DHT22;3875;46.562;4.898;2022-07-24T11:52:28;37.30;47.10
7666;DHT22;3875;46.562;4.898;2022-07-24T11:55:05;37.60;47.50
7666;DHT22;3875;46.562;4.898;2022-07-24T11:57:38;37.60;46.30
7666;DHT22;3875;46.562;4.898;2022-07-24T12:00:10;37.20;46.70
7666;DHT22;3875;46.562;4.898;2022-07-24T12:02:41;37.10;46.70
7666;DHT22;3875;46.562;4.898;2022-07-24T12:05:07;37.30;46.20
7666;DHT22;3875;46.562;4.898;2022-07-24T12:07:34;36.90;46.70
7666;DHT22;3875;46.562;4.898;2022-07-24T12:10:02;36.80;46.50
7666;DHT22;3875;46.562;4.898;2022-07-24T12:12:32;36.70;47.00
7666;DHT22;3875;46.562;4.898;2022-07-24T12:15:05;36.70;46.90
7666;DHT22;3875;46.562;4.898;2022-07-24T12:17:52;37.10;46.60
7666;DHT22;3875;46.562;4.898;2022-07-24T12:20:28;37.50;46.60
7666;DHT22;3875;46.562;4.898;2022-07-24T12:22:55;37.70;46.00
7666;DHT22;3875;46.562;4.898;2022-07-24T12:25:21;37.80;46.00
7666;DHT22;3875;46.562;4.898;2022-07-24T12:27:47;38.10;46.10
7666;DHT22;3875;46.562;4.898;2022-07-24T12:30:26;38.40;45.80
7666;DHT22;3875;46.562;4.898;2022-07-24T12:35:22;38.30;44.50
7666;DHT22;3875;46.562;4.898;2022-07-24T12:37:48;37.90;45.20
7666;DHT22;3875;46.562;4.898;2022-07-24T12:40:29;37.80;45.40
7666;DHT22;3875;46.562;4.898;2022-07-24T12:42:57;37.80;44.90
7666;DHT22;3875;46.562;4.898;2022-07-24T12:45:23;38.10;45.20
7666;DHT22;3875;46.562;4.898;2022-07-24T12:50:37;38.10;44.20
7666;DHT22;3875;46.562;4.898;2022-07-24T12:53:08;37.80;44.60
7666;DHT22;3875;46.562;4.898;2022-07-24T12:55:35;37.40;45.10
7666;DHT22;3875;46.562;4.898;2022-07-24T12:58:04;37.00;45.50
7666;DHT22;3875;46.562;4.898;2022-07-24T13:00:31;37.00;45.80
7666;DHT22;3875;46.562;4.898;2022-07-24T13:02:57;36.90;45.70
7666;DHT22;3875;46.562;4.898;2022-07-24T13:05:38;37.20;46.10
7666;DHT22;3875;46.562;4.898;2022-07-24T13:08:05;37.40;45.20
7666;DHT22;3875;46.562;4.898;2022-07-24T13:10:30;37.50;45.30
7666;DHT22;3875;46.562;4.898;2022-07-24T13:12:56;37.70;45.00
7666;DHT22;3875;46.562;4.898;2022-07-24T13:15:22;38.00;44.50
7666;DHT22;3875;46.562;4.898;2022-07-24T13:17:47;37.80;44.40
7666;DHT22;3875;46.562;4.898;2022-07-24T13:20:13;37.90;45.10
7666;DHT22;3875;46.562;4.898;2022-07-24T13:22:39;37.80;44.50
7666;DHT22;3875;46.562;4.898;2022-07-24T13:25:05;37.80;45.30
7666;DHT22;3875;46.562;4.898;2022-07-24T13:27:30;38.10;45.00
7666;DHT22;3875;46.562;4.898;2022-07-24T13:29:56;38.20;43.80
7666;DHT22;3875;46.562;4.898;2022-07-24T13:32:22;38.10;44.80
7666;DHT22;3875;46.562;4.898;2022-07-24T13:34:47;38.40;44.90
7666;DHT22;3875;46.562;4.898;2022-07-24T13:37:13;38.40;43.70
7666;DHT22;3875;46.562;4.898;2022-07-24T13:39:39;38.50;43.90
7666;DHT22;3875;46.562;4.898;2022-07-24T13:42:09;38.20;44.00
7666;DHT22;3875;46.562;4.898;2022-07-24T13:44:34;38.20;44.20
7666;DHT22;3875;46.562;4.898;2022-07-24T13:47:00;38.10;44.20
7666;DHT22;3875;46.562;4.898;2022-07-24T13:49:26;37.80;44.60
7666;DHT22;3875;46.562;4.898;2022-07-24T13:51:52;37.40;45.00
7666;DHT22;3875;46.562;4.898;2022-07-24T13:54:18;37.20;45.50
7666;DHT22;3875;46.562;4.898;2022-07-24T13:56:43;37.10;45.40
7666;DHT22;3875;46.562;4.898;2022-07-24T13:59:10;37.00;45.80
7666;DHT22;3875;46.562;4.898;2022-07-24T14:01:36;37.20;44.90
7666;DHT22;3875;46.562;4.898;2022-07-24T14:04:03;37.30;45.00
7666;DHT22;3875;46.562;4.898;2022-07-24T14:06:29;37.60;45.10
7666;DHT22;3875;46.562;4.898;2022-07-24T14:08:55;37.90;44.10
7666;DHT22;3875;46.562;4.898;2022-07-24T14:11:21;37.90;43.80
7666;DHT22;3875;46.562;4.898;2022-07-24T14:13:47;37.70;44.40
7666;DHT22;3875;46.562;4.898;2022-07-24T14:16:12;37.50;44.20
7666;DHT22;3875;46.562;4.898;2022-07-24T14:18:38;37.60;44.50
7666;DHT22;3875;46.562;4.898;2022-07-24T14:21:04;37.60;44.30
7666;DHT22;3875;46.562;4.898;2022-07-24T14:23:30;37.60;44.60
7666;DHT22;3875;46.562;4.898;2022-07-24T14:25:55;37.80;44.70
7666;DHT22;3875;46.562;4.898;2022-07-24T14:28:21;37.90;44.70
7666;DHT22;3875;46.562;4.898;2022-07-24T14:30:47;38.00;44.40
7666;DHT22;3875;46.562;4.898;2022-07-24T14:33:12;37.80;44.30
7666;DHT22;3875;46.562;4.898;2022-07-24T14:35:38;37.40;44.20
7666;DHT22;3875;46.562;4.898;2022-07-24T14:38:04;37.30;44.10
7666;DHT22;3875;46.562;4.898;2022-07-24T14:40:30;37.20;44.30
7666;DHT22;3875;46.562;4.898;2022-07-24T14:42:55;37.20;44.50
7666;DHT22;3875;46.562;4.898;2022-07-24T14:45:22;37.10;44.70
7666;DHT22;3875;46.562;4.898;2022-07-24T14:47:48;36.80;45.00
7666;DHT22;3875;46.562;4.898;2022-07-24T14:50:14;36.60;45.10
7666;DHT22;3875;46.562;4.898;2022-07-24T14:52:39;36.70;44.80
7666;DHT22;3875;46.562;4.898;2022-07-24T14:55:06;36.70;45.00
7666;DHT22;3875;46.562;4.898;2022-07-24T14:57:32;36.70;44.60
7666;DHT22;3875;46.562;4.898;2022-07-24T14:59:58;36.80;44.80
7666;DHT22;3875;46.562;4.898;2022-07-24T15:02:24;36.80;44.80
7666;DHT22;3875;46.562;4.898;2022-07-24T15:04:49;36.60;45.20
7666;DHT22;3875;46.562;4.898;2022-07-24T15:07:16;36.50;45.10
7666;DHT22;3875;46.562;4.898;2022-07-24T15:09:41;36.50;45.50
7666;DHT22;3875;46.562;4.898;2022-07-24T15:12:07;36.70;45.70
7666;DHT22;3875;46.562;4.898;2022-07-24T15:14:33;36.80;45.00
7666;DHT22;3875;46.562;4.898;2022-07-24T15:16:59;36.70;45.40
7666;DHT22;3875;46.562;4.898;2022-07-24T15:19:25;36.80;45.30
7666;DHT22;3875;46.562;4.898;2022-07-24T15:21:50;36.90;44.80
7666;DHT22;3875;46.562;4.898;2022-07-24T15:24:16;36.80;44.90
7666;DHT22;3875;46.562;4.898;2022-07-24T15:26:42;36.80;45.30
7666;DHT22;3875;46.562;4.898;2022-07-24T15:29:08;36.80;45.60
7666;DHT22;3875;46.562;4.898;2022-07-24T15:31:34;37.00;45.00
7666;DHT22;3875;46.562;4.898;2022-07-24T15:33:59;37.20;45.50
7666;DHT22;3875;46.562;4.898;2022-07-24T15:36:25;37.50;44.40
7666;DHT22;3875;46.562;4.898;2022-07-24T15:38:51;37.50;44.50
7666;DHT22;3875;46.562;4.898;2022-07-24T15:41:16;37.40;44.00
7666;DHT22;3875;46.562;4.898;2022-07-24T15:43:42;37.20;44.50
7666;DHT22;3875;46.562;4.898;2022-07-24T15:46:08;37.20;44.70
7666;DHT22;3875;46.562;4.898;2022-07-24T15:48:33;37.40;45.10
7666;DHT22;3875;46.562;4.898;2022-07-24T15:50:59;37.30;44.50
7666;DHT22;3875;46.562;4.898;2022-07-24T15:53:25;37.10;44.30
7666;DHT22;3875;46.562;4.898;2022-07-24T15:55:52;37.00;44.90
7666;DHT22;3875;46.562;4.898;2022-07-24T15:58:17;37.00;45.10
7666;DHT22;3875;46.562;4.898;2022-07-24T16:00:43;37.30;44.80
7666;DHT22;3875;46.562;4.898;2022-07-24T16:03:09;37.50;44.60
7666;DHT22;3875;46.562;4.898;2022-07-24T16:05:35;37.70;44.00
7666;DHT22;3875;46.562;4.898;2022-07-24T16:08:01;38.00;44.00
7666;DHT22;3875;46.562;4.898;2022-07-24T16:10:27;38.30;43.20
7666;DHT22;3875;46.562;4.898;2022-07-24T16:12:53;38.30;43.20
7666;DHT22;3875;46.562;4.898;2022-07-24T16:15:19;38.30;43.20
7666;DHT22;3875;46.562;4.898;2022-07-24T16:17:45;38.30;43.10
7666;DHT22;3875;46.562;4.898;2022-07-24T16:20:11;38.40;43.00
7666;DHT22;3875;46.562;4.898;2022-07-24T16:22:37;38.60;42.80
7666;DHT22;3875;46.562;4.898;2022-07-24T16:25:04;38.50;42.10
7666;DHT22;3875;46.562;4.898;2022-07-24T16:27:30;38.30;42.20
7666;DHT22;3875;46.562;4.898;2022-07-24T16:29:56;38.50;42.40
7666;DHT22;3875;46.562;4.898;2022-07-24T16:32:22;38.80;42.00
7666;DHT22;3875;46.562;4.898;2022-07-24T16:34:48;39.20;41.70
7666;DHT22;3875;46.562;4.898;2022-07-24T16:37:14;39.80;41.20
7666;DHT22;3875;46.562;4.898;2022-07-24T16:39:39;40.20;40.40
7666;DHT22;3875;46.562;4.898;2022-07-24T16:42:06;40.50;39.90
7666;DHT22;3875;46.562;4.898;2022-07-24T16:44:31;40.70;39.70
7666;DHT22;3875;46.562;4.898;2022-07-24T16:46:58;41.00;39.30
7666;DHT22;3875;46.562;4.898;2022-07-24T16:49:23;41.50;39.40
7666;DHT22;3875;46.562;4.898;2022-07-24T16:51:49;41.60;39.20